Time;durP1;ratioP1;P1;durP2;ratioP2;P2;SDS_P1;SDS_P2;PMS_P1;PMS_P2;Temp;Humidity;BMP_temperature;BMP_pressure;BME280_temperature;BME280_humidity;BME280_pressure;Samples;Min_cycle;Max_cycle;Signal;HPM_P1;HPM_P2
2023/11/04 00:00:16;;;;;;;8.50;2.45;;;7.20;35.60;;;;;;5033557;28;20025;-76
2023/11/04 00:02:42;;;;;;;8.38;2.47;;;7.20;34.40;;;;;;5032532;28;20036;-76
2023/11/04 00:05:08;;;;;;;10.68;2.67;;;7.10;41.00;;;;;;5033130;28;20108;-76
2023/11/04 00:07:34;;;;;;;7.50;2.67;;;7.10;42.80;;;;;;5033415;28;20442;-76
2023/11/04 00:09:59;;;;;;;7.15;2.67;;;7.10;46.30;;;;;;5033680;28;20068;-76
2023/11/04 00:12:25;;;;;;;7.32;2.17;;;7.10;48.20;;;;;;5033340;28;20026;-76
2023/11/04 00:14:51;;;;;;;4.65;1.95;;;7.10;50.50;;;;;;5033111;28;20034;-76
2023/11/04 00:17:17;;;;;;;4.32;1.73;;;7.10;52.80;;;;;;5032403;28;20471;-77
2023/11/04 00:19:42;;;;;;;11.13;2.90;;;6.90;56.70;;;;;;5033593;28;20033;-76
2023/11/04 00:22:08;;;;;;;4.70;2.00;;;6.90;56.20;;;;;;5033244;28;20079;-76
2023/11/04 00:24:33;;;;;;;6.05;2.10;;;6.90;71.10;;;;;;5033997;28;20026;-76
2023/11/04 00:26:59;;;;;;;7.10;2.22;;;6.90;70.10;;;;;;5036878;28;20032;-76
2023/11/04 00:29:25;;;;;;;3.67;1.73;;;7.00;66.20;;;;;;5036506;28;20490;-76
2023/11/04 00:31:50;;;;;;;6.70;2.30;;;7.00;62.80;;;;;;5036749;28;20044;-76
2023/11/04 00:34:16;;;;;;;5.32;1.83;;;7.00;59.50;;;;;;5036997;28;20112;-76
2023/11/04 00:36:41;;;;;;;5.70;1.92;;;7.00;71.10;;;;;;5037031;28;20025;-76
2023/11/04 00:39:09;;;;;;;6.10;1.90;;;6.90;63.00;;;;;;5035729;28;20029;-76
2023/11/04 00:41:34;;;;;;;8.52;1.73;;;6.90;73.10;;;;;;5036598;28;20118;-76
2023/11/04 00:44:01;;;;;;;3.33;1.63;;;7.00;67.70;;;;;;5036607;28;20551;-76
2023/11/04 00:46:26;;;;;;;7.97;1.60;;;7.00;62.30;;;;;;5036551;28;20027;-76
2023/11/04 00:48:52;;;;;;;7.10;2.05;;;6.90;65.80;;;;;;5036457;28;20033;-76
2023/11/04 00:51:18;;;;;;;10.30;2.58;;;6.90;82.80;;;;;;5036749;28;20032;-76
2023/11/04 00:53:44;;;;;;;2.97;1.45;;;6.90;75.00;;;;;;5036766;28;20025;-76
2023/11/04 00:56:09;;;;;;;3.83;1.60;;;6.90;88.90;;;;;;5036278;28;20033;-76
2023/11/04 00:58:35;;;;;;;7.10;2.35;;;6.90;94.80;;;;;;5036185;28;20055;-76
2023/11/04 01:01:00;;;;;;;7.93;1.70;;;6.80;97.60;;;;;;5035331;28;20021;-76
2023/11/04 01:03:26;;;;;;;7.22;1.77;;;6.80;98.30;;;;;;5036249;28;20033;-76
2023/11/04 01:05:51;;;;;;;6.07;1.75;;;6.90;99.90;;;;;;5036074;28;20022;-77
2023/11/04 01:08:17;;;;;;;4.15;1.63;;;6.90;99.50;;;;;;5035282;28;20032;-76
2023/11/04 01:10:43;;;;;;;5.03;1.35;;;7.00;97.10;;;;;;5035188;28;20059;-76
2023/11/04 01:13:08;;;;;;;5.60;1.70;;;7.10;99.90;;;;;;5035730;28;20022;-77
2023/11/04 01:15:34;;;;;;;9.23;2.00;;;7.20;97.30;;;;;;5035450;28;20037;-76
2023/11/04 01:18:00;;;;;;;4.95;1.55;;;7.20;94.20;;;;;;5034944;28;20064;-76
2023/11/04 01:20:25;;;;;;;4.93;1.65;;;7.20;97.30;;;;;;5036190;28;20029;-76
2023/11/04 01:22:51;;;;;;;3.47;1.38;;;7.30;91.40;;;;;;5035793;28;20033;-76
2023/11/04 01:25:17;;;;;;;4.50;2.28;;;7.30;88.00;;;;;;5035753;28;20367;-76
2023/11/04 01:27:42;;;;;;;4.80;1.70;;;7.30;78.30;;;;;;5036098;28;20037;-76
2023/11/04 01:30:10;;;;;;;2.33;1.17;;;7.30;90.60;;;;;;5035649;28;20117;-76
2023/11/04 01:32:35;;;;;;;6.18;1.45;;;7.30;92.40;;;;;;5035393;28;20112;-76
2023/11/04 01:35:01;;;;;;;3.72;1.20;;;7.40;80.60;;;;;;5035529;28;20523;-77
2023/11/04 01:37:27;;;;;;;6.63;1.63;;;7.60;67.80;;;;;;5034635;28;20121;-76
2023/11/04 01:39:53;;;;;;;4.65;1.00;;;7.60;55.00;;;;;;5034995;28;20072;-76
2023/11/04 01:42:19;;;;;;;4.13;1.10;;;7.80;50.20;;;;;;5035789;28;20452;-76
2023/11/04 01:44:44;;;;;;;2.25;1.20;;;7.90;38.50;;;;;;5035486;28;20036;-76
2023/11/04 01:47:12;;;;;;;2.95;1.33;;;7.90;35.70;;;;;;5035398;28;20086;-76
2023/11/04 01:49:39;;;;;;;3.72;1.25;;;;;;;;;;5034985;28;20464;-76
2023/11/04 01:52:05;;;;;;;2.22;1.00;;;7.80;26.90;;;;;;5035326;28;20356;-76
2023/11/04 01:54:33;;;;;;;1.75;0.90;;;7.90;16.50;;;;;;5035587;28;20091;-76
2023/11/04 01:57:01;;;;;;;4.80;1.38;;;7.90;21.30;;;;;;5035485;28;20380;-76
2023/11/04 01:59:27;;;;;;;3.17;1.08;;;7.90;20.20;;;;;;5034295;28;20120;-76
2023/11/04 02:01:53;;;;;;;4.10;1.25;;;7.90;18.70;;;;;;5035122;28;20116;-76
2023/11/04 02:04:18;;;;;;;4.80;1.20;;;8.00;12.70;;;;;;5034758;28;20460;-76
2023/11/04 02:06:44;;;;;;;3.08;1.45;;;8.10;3.50;;;;;;5035052;28;20034;-76
2023/11/04 02:09:11;;;;;;;5.32;0.98;;;8.10;1.00;;;;;;5034653;28;20048;-77
2023/11/04 02:11:36;;;;;;;6.63;1.40;;;8.00;1.30;;;;;;5034885;28;20025;-76
2023/11/04 02:14:03;;;;;;;1.95;1.10;;;8.10;1.00;;;;;;5034898;28;20029;-76
2023/11/04 02:16:29;;;;;;;2.95;1.45;;;8.20;1.00;;;;;;5034327;28;20391;-76
2023/11/04 02:18:55;;;;;;;5.43;1.08;;;8.10;1.00;;;;;;5034616;28;20155;-76
2023/11/04 02:21:21;;;;;;;2.85;1.15;;;8.10;1.00;;;;;;5034962;28;20021;-75
2023/11/04 02:23:46;;;;;;;3.15;1.20;;;8.10;1.00;;;;;;5034685;28;20463;-76
2023/11/04 02:26:12;;;;;;;4.60;1.10;;;8.20;1.00;;;;;;5034622;28;20022;-76
2023/11/04 02:28:38;;;;;;;2.97;1.10;;;8.10;1.00;;;;;;5034869;28;20031;-76
2023/11/04 02:31:04;;;;;;;2.72;1.15;;;8.10;1.00;;;;;;5034467;28;20029;-76
2023/11/04 02:33:29;;;;;;;2.08;0.85;;;8.20;1.00;;;;;;5034485;28;20120;-76
2023/11/04 02:35:55;;;;;;;3.28;0.95;;;8.10;1.00;;;;;;5034430;28;20026;-76
2023/11/04 02:38:22;;;;;;;2.42;1.20;;;8.30;1.00;;;;;;5033710;28;20129;-76
2023/11/04 02:40:48;;;;;;;3.90;1.30;;;8.20;1.00;;;;;;5034379;28;20379;-76
2023/11/04 02:43:14;;;;;;;3.72;1.40;;;7.40;3.90;;;;;;5034666;28;20108;-76
2023/11/04 02:45:40;;;;;;;5.20;1.98;;;8.20;1.00;;;;;;5034332;28;20028;-76
2023/11/04 02:48:05;;;;;;;3.63;1.30;;;8.30;1.00;;;;;;5033788;28;20025;-76
2023/11/04 02:50:31;;;;;;;4.00;1.00;;;8.30;1.00;;;;;;5034268;28;20534;-76
2023/11/04 02:52:57;;;;;;;5.15;1.20;;;8.50;1.00;;;;;;5033909;28;20025;-76
2023/11/04 02:55:22;;;;;;;2.85;1.13;;;8.40;1.00;;;;;;5034184;28;20071;-76
2023/11/04 02:57:48;;;;;;;1.52;0.90;;;8.50;1.00;;;;;;5034129;28;20563;-76
2023/11/04 03:00:14;;;;;;;2.88;1.10;;;8.60;1.00;;;;;;5034145;28;20032;-76
2023/11/04 03:02:41;;;;;;;2.38;0.98;;;8.60;1.00;;;;;;5034394;28;20029;-76
2023/11/04 03:05:06;;;;;;;3.65;1.00;;;8.60;1.00;;;;;;5034002;28;20468;-76
2023/11/04 03:07:32;;;;;;;2.25;0.90;;;8.70;1.00;;;;;;5033592;28;20024;-76
2023/11/04 03:09:58;;;;;;;3.42;0.90;;;8.60;1.00;;;;;;5033969;28;20033;-76
2023/11/04 03:12:23;;;;;;;4.10;1.10;;;8.80;1.00;;;;;;5033636;28;20032;-76
2023/11/04 03:14:49;;;;;;;1.40;1.00;;;8.80;1.00;;;;;;5033047;28;20202;-76
2023/11/04 03:17:14;;;;;;;3.08;1.13;;;8.70;1.00;;;;;;5033482;28;20041;-76
2023/11/04 03:19:45;;;;;;;3.65;0.93;;;8.50;1.00;;;;;;5033600;28;20029;-76
2023/11/04 03:22:12;;;;;;;1.70;0.90;;;;;;;;;;5033851;28;20021;-77
2023/11/04 03:24:43;;;;;;;4.03;1.48;;;8.80;1.00;;;;;;5033933;28;20037;-76
2023/11/04 03:27:09;;;;;;;3.15;1.02;;;8.70;1.00;;;;;;5033916;28;20080;-76
2023/11/04 03:29:35;;;;;;;2.10;0.95;;;8.70;1.00;;;;;;5033477;28;20088;-76
2023/11/04 03:32:00;;;;;;;4.00;1.00;;;8.90;1.00;;;;;;5032843;28;20025;-76
2023/11/04 03:34:28;;;;;;;1.00;0.90;;;8.40;1.00;;;;;;5033548;28;20029;-76
2023/11/04 03:36:53;;;;;;;4.38;0.73;;;8.80;1.00;;;;;;5033460;28;20057;-76
2023/11/04 03:39:19;;;;;;;2.83;0.90;;;8.70;1.00;;;;;;5033777;28;20029;-76
2023/11/04 03:41:45;;;;;;;4.47;1.08;;;8.80;1.00;;;;;;5033362;28;20501;-76
2023/11/04 03:44:12;;;;;;;3.47;1.20;;;;;;;;;;5033402;28;20032;-76
2023/11/04 03:46:37;;;;;;;2.88;0.75;;;8.80;1.00;;;;;;5033579;28;20018;-76
2023/11/04 03:49:05;;;;;;;1.30;1.00;;;8.90;1.00;;;;;;5033631;28;20079;-76
2023/11/04 03:51:30;;;;;;;3.25;0.70;;;8.80;1.00;;;;;;5033094;28;20037;-76
2023/11/04 03:53:56;;;;;;;2.05;0.88;;;8.80;1.00;;;;;;5033874;28;20040;-76
2023/11/04 03:56:22;;;;;;;1.27;0.68;;;8.80;1.00;;;;;;5033562;28;20029;-76
2023/11/04 03:58:47;;;;;;;1.27;0.90;;;8.60;1.00;;;;;;5033663;28;20026;-75
2023/11/04 04:01:13;;;;;;;3.10;1.05;;;8.80;1.00;;;;;;5037223;28;20032;-76
2023/11/04 04:03:38;;;;;;;1.40;0.77;;;9.00;1.00;;;;;;5037351;28;20029;-76
2023/11/04 04:06:04;;;;;;;2.50;0.70;;;8.80;1.00;;;;;;5036965;28;20388;-76
2023/11/04 04:08:30;;;;;;;1.65;0.60;;;9.00;1.00;;;;;;5037222;28;20029;-76
2023/11/04 04:10:56;;;;;;;1.13;0.70;;;8.90;1.00;;;;;;5037214;28;20026;-76
2023/11/04 04:13:21;;;;;;;1.33;0.60;;;8.90;1.00;;;;;;5036780;28;20390;-76
2023/11/04 04:15:47;;;;;;;3.00;0.90;;;9.00;1.00;;;;;;5037372;28;20029;-76
2023/11/04 04:18:13;;;;;;;1.05;0.80;;;8.90;1.00;;;;;;5036243;28;20045;-76
2023/11/04 04:20:38;;;;;;;1.65;0.70;;;8.90;1.00;;;;;;5037049;28;20034;-76
2023/11/04 04:23:04;;;;;;;2.38;1.00;;;8.90;1.00;;;;;;5037004;28;20049;-76
2023/11/04 04:25:29;;;;;;;2.30;0.80;;;9.00;1.00;;;;;;5037176;28;20069;-76
2023/11/04 04:27:55;;;;;;;1.65;0.60;;;9.00;1.00;;;;;;5036706;28;20026;-76
2023/11/04 04:30:21;;;;;;;4.05;0.82;;;9.20;1.00;;;;;;5036517;28;20079;-76
2023/11/04 04:32:46;;;;;;;4.80;0.90;;;9.00;1.00;;;;;;5036170;28;20037;-76
2023/11/04 04:35:12;;;;;;;2.20;0.80;;;8.90;1.00;;;;;;5036375;28;20029;-76
2023/11/04 04:37:38;;;;;;;1.98;0.82;;;8.90;1.00;;;;;;5036397;28;20079;-76
2023/11/04 04:40:05;;;;;;;3.28;1.15;;;9.00;1.00;;;;;;5036957;28;20034;-76
2023/11/04 04:42:31;;;;;;;2.65;0.80;;;8.90;1.00;;;;;;5035774;28;20032;-76
2023/11/04 04:44:57;;;;;;;1.02;0.75;;;9.00;1.00;;;;;;5036365;28;20025;-76
2023/11/04 04:47:22;;;;;;;1.60;0.75;;;8.90;1.00;;;;;;5035669;28;20390;-76
2023/11/04 04:49:48;;;;;;;4.07;0.80;;;9.00;1.00;;;;;;5036801;28;20038;-76
2023/11/04 04:52:13;;;;;;;1.70;0.90;;;9.00;1.00;;;;;;5036210;28;20029;-76
2023/11/04 04:54:39;;;;;;;1.60;0.73;;;9.00;1.00;;;;;;5036114;28;20037;-76
2023/11/04 04:57:05;;;;;;;1.38;0.77;;;9.00;1.00;;;;;;5036398;28;20033;-76
2023/11/04 04:59:30;;;;;;;2.55;0.95;;;9.00;1.00;;;;;;5035590;28;20025;-76
2023/11/04 05:01:56;;;;;;;1.40;0.80;;;9.00;1.00;;;;;;5036518;28;20411;-76
2023/11/04 05:04:23;;;;;;;1.00;0.90;;;9.00;1.00;;;;;;5036178;28;20464;-76
2023/11/04 05:06:48;;;;;;;1.70;0.80;;;9.00;1.00;;;;;;5036162;28;20022;-77
2023/11/04 05:09:14;;;;;;;1.25;0.80;;;9.00;1.00;;;;;;5035843;28;20079;-76
2023/11/04 05:11:39;;;;;;;1.80;0.85;;;9.00;1.00;;;;;;5035046;28;20076;-76
2023/11/04 05:14:05;;;;;;;7.82;1.15;;;9.10;1.00;;;;;;5035716;28;20022;-76
2023/11/04 05:16:30;;;;;;;2.30;1.10;;;9.00;1.00;;;;;;5035619;28;20025;-76
2023/11/04 05:18:56;;;;;;;2.53;0.77;;;9.10;1.00;;;;;;5035747;28;20159;-76
2023/11/04 05:21:26;;;;;;;4.20;1.10;;;9.10;1.00;;;;;;5036150;28;20040;-76
2023/11/04 05:23:51;;;;;;;0.90;0.80;;;9.20;1.00;;;;;;5035273;28;20095;-76
2023/11/04 05:26:18;;;;;;;3.92;1.00;;;9.10;1.00;;;;;;5035800;28;20088;-76
2023/11/04 05:28:43;;;;;;;1.30;1.05;;;9.10;1.00;;;;;;5035442;28;20545;-76
2023/11/04 05:31:09;;;;;;;2.30;0.70;;;9.30;1.00;;;;;;5035966;28;20073;-76
2023/11/04 05:33:34;;;;;;;4.50;1.23;;;9.00;1.00;;;;;;5035690;28;20037;-76
2023/11/04 05:36:00;;;;;;;1.15;0.90;;;9.00;1.00;;;;;;5035842;28;20037;-76
2023/11/04 05:38:27;;;;;;;1.55;0.80;;;9.10;1.00;;;;;;5035816;28;20038;-76
2023/11/04 05:40:53;;;;;;;3.05;0.98;;;8.80;1.00;;;;;;5035448;28;20056;-76
2023/11/04 05:43:19;;;;;;;1.85;1.23;;;9.10;1.00;;;;;;5034888;28;20079;-76
2023/11/04 05:45:45;;;;;;;1.80;1.30;;;9.10;1.00;;;;;;5035188;28;20025;-76
2023/11/04 05:48:11;;;;;;;2.33;0.90;;;9.10;1.00;;;;;;5035428;28;20143;-76
2023/11/04 05:50:37;;;;;;;3.08;1.02;;;9.10;1.00;;;;;;5035020;28;20028;-76
2023/11/04 05:53:03;;;;;;;1.95;1.08;;;9.20;1.00;;;;;;5035422;28;20116;-76
2023/11/04 05:55:29;;;;;;;2.97;1.00;;;9.10;1.00;;;;;;5034939;28;20048;-76
2023/11/04 05:57:55;;;;;;;1.50;1.00;;;9.10;1.00;;;;;;5035129;28;20025;-76
2023/11/04 06:00:21;;;;;;;2.38;1.08;;;9.10;3.60;;;;;;5035187;28;20041;-77
2023/11/04 06:02:47;;;;;;;3.72;0.93;;;9.10;1.00;;;;;;5035423;28;20017;-76
2023/11/04 06:05:14;;;;;;;2.50;1.15;;;;;;;;;;5035096;28;20026;-76
2023/11/04 06:07:40;;;;;;;4.40;0.90;;;9.30;1.00;;;;;;5034695;28;20029;-76
2023/11/04 06:10:08;;;;;;;1.00;0.80;;;9.20;1.40;;;;;;5035038;28;20032;-76
2023/11/04 06:12:35;;;;;;;0.88;0.80;;;9.10;1.00;;;;;;5034047;28;20028;-76
2023/11/04 06:15:04;;;;;;;1.63;1.02;;;;;;;;;;5035153;28;20067;-76
2023/11/04 06:17:31;;;;;;;3.30;1.23;;;;;;;;;;5034262;28;20049;-76
2023/11/04 06:19:57;;;;;;;1.30;1.05;;;9.00;10.50;;;;;;5034393;28;20087;-76
2023/11/04 06:22:25;;;;;;;1.70;1.20;;;;;;;;;;5033442;28;20022;-76
2023/11/04 06:24:54;;;;;;;4.22;1.13;;;;;;;;;;5034662;28;20523;-77
2023/11/04 06:27:22;;;;;;;2.22;0.90;;;;;;;;;;5034684;28;20029;-76
2023/11/04 06:29:50;;;;;;;5.18;1.40;;;;;;;;;;5034590;28;20032;-76
2023/11/04 06:32:16;;;;;;;1.42;0.90;;;;;;;;;;5034485;28;20468;-76
2023/11/04 06:34:43;;;;;;;4.82;1.20;;;;;;;;;;5033955;28;20032;-76
2023/11/04 06:37:09;;;;;;;2.63;0.88;;;9.10;24.30;;;;;;5034593;28;20030;-76
2023/11/04 06:39:34;;;;;;;1.42;1.02;;;9.10;25.90;;;;;;5033750;28;20075;-76
2023/11/04 06:42:00;;;;;;;3.25;1.23;;;9.20;23.20;;;;;;5034811;28;20036;-76
2023/11/04 06:44:26;;;;;;;3.10;1.23;;;;;;;;;;5034443;28;20029;-76
2023/11/04 06:46:52;;;;;;;1.55;0.98;;;9.20;16.20;;;;;;5034287;28;20026;-76
2023/11/04 06:49:22;;;;;;;2.20;1.00;;;;;;;;;;5034369;28;20025;-76
2023/11/04 06:51:49;;;;;;;2.85;0.90;;;;;;;;;;5033618;28;20031;-76
2023/11/04 06:54:14;;;;;;;2.50;1.05;;;9.20;1.00;;;;;;5034100;28;20031;-76
2023/11/04 06:56:40;;;;;;;2.35;0.88;;;9.50;1.00;;;;;;5034175;28;20498;-77
2023/11/04 06:59:06;;;;;;;0.90;0.75;;;9.90;1.00;;;;;;5034296;28;20427;-76
2023/11/04 07:01:31;;;;;;;4.68;1.38;;;9.80;1.00;;;;;;5034441;28;20418;-76
2023/11/04 07:03:57;;;;;;;1.08;0.60;;;9.70;1.00;;;;;;5033321;28;20021;-76
2023/11/04 07:06:22;;;;;;;1.58;0.85;;;9.70;1.00;;;;;;5034274;28;20033;-76
2023/11/04 07:08:48;;;;;;;1.13;0.80;;;9.90;1.00;;;;;;5033918;28;20021;-77
2023/11/04 07:11:16;;;;;;;0.80;0.80;;;10.10;1.00;;;;;;5033385;28;20030;-77
2023/11/04 07:13:42;;;;;;;2.38;0.90;;;10.00;1.00;;;;;;5033576;28;20392;-76
2023/11/04 07:16:09;;;;;;;1.83;0.70;;;10.40;1.00;;;;;;5032935;28;20032;-76
2023/11/04 07:18:35;;;;;;;0.80;0.80;;;9.70;1.00;;;;;;5032821;28;20050;-76
2023/11/04 07:21:02;;;;;;;1.65;0.70;;;9.70;1.00;;;;;;5034156;28;20116;-76
2023/11/04 07:23:28;;;;;;;3.00;0.80;;;9.70;1.00;;;;;;5034127;28;20034;-76
2023/11/04 07:25:54;;;;;;;1.75;0.70;;;9.90;1.00;;;;;;5033898;28;20033;-76
2023/11/04 07:28:22;;;;;;;1.10;0.75;;;10.00;1.00;;;;;;5033815;28;20029;-76
2023/11/04 07:30:49;;;;;;;2.30;0.80;;;10.20;1.00;;;;;;5033401;28;20030;-76
2023/11/04 07:33:15;;;;;;;1.98;0.98;;;10.80;1.00;;;;;;5034102;28;20036;-77
2023/11/04 07:35:40;;;;;;;2.08;0.68;;;11.50;99.90;;;;;;5037329;28;20037;-77
2023/11/04 07:38:08;;;;;;;2.50;0.90;;;12.40;99.90;;;;;;5038004;28;20033;-77
2023/11/04 07:40:34;;;;;;;1.48;0.70;;;12.50;99.90;;;;;;5038112;28;20459;-77
2023/11/04 07:43:00;;;;;;;1.60;0.70;;;12.60;1.00;;;;;;5037760;28;20460;-76
2023/11/04 07:45:27;;;;;;;1.13;0.98;;;12.20;21.70;;;;;;5037745;28;20071;-77
2023/11/04 07:47:52;;;;;;;0.93;0.73;;;11.70;1.00;;;;;;5037612;28;20025;-76
2023/11/04 07:50:18;;;;;;;1.10;0.90;;;11.10;99.90;;;;;;5037615;28;20059;-76
2023/11/04 07:52:44;;;;;;;3.95;1.33;;;11.00;99.90;;;;;;5037782;28;20379;-77
2023/11/04 07:55:10;;;;;;;1.05;0.70;;;10.70;99.90;;;;;;5037601;28;20041;-76
2023/11/04 07:57:37;;;;;;;3.05;1.00;;;;;;;;;;5037237;28;20029;-76
2023/11/04 08:00:07;;;;;;;2.72;0.95;;;10.30;1.00;;;;;;5036979;28;20068;-76
2023/11/04 08:02:33;;;;;;;1.30;1.00;;;10.50;1.00;;;;;;5037028;28;20464;-76
2023/11/04 08:04:59;;;;;;;0.98;0.90;;;10.60;1.00;;;;;;5036448;28;20028;-77
2023/11/04 08:07:26;;;;;;;1.80;1.08;;;10.60;99.90;;;;;;5036855;28;20057;-76
2023/11/04 08:09:52;;;;;;;2.20;0.90;;;10.60;1.00;;;;;;5037224;28;20029;-77
2023/11/04 08:12:17;;;;;;;2.53;1.00;;;10.60;1.00;;;;;;5037212;28;20033;-76
2023/11/04 08:14:43;;;;;;;3.30;1.25;;;10.70;1.00;;;;;;5037151;28;20029;-77
2023/11/04 08:17:08;;;;;;;2.78;0.98;;;10.80;99.90;;;;;;5036358;28;20052;-77
2023/11/04 08:19:35;;;;;;;1.08;1.02;;;10.80;99.90;;;;;;5036913;28;20029;-76
2023/11/04 08:22:00;;;;;;;3.53;1.20;;;10.80;1.00;;;;;;5036703;28;20116;-77
2023/11/04 08:24:26;;;;;;;1.25;1.08;;;10.70;1.00;;;;;;5036590;28;20127;-78
2023/11/04 08:26:52;;;;;;;1.08;0.90;;;10.80;1.00;;;;;;5036474;28;20053;-76
2023/11/04 08:29:18;;;;;;;1.10;1.00;;;11.20;99.90;;;;;;5037067;28;20100;-77
2023/11/04 08:31:44;;;;;;;2.35;1.10;;;11.30;99.90;;;;;;5037146;28;20030;-76
2023/11/04 08:34:09;;;;;;;3.53;1.30;;;11.20;99.90;;;;;;5036785;28;20083;-76
2023/11/04 08:36:35;;;;;;;4.07;1.00;;;11.00;99.90;;;;;;5036863;28;20040;-76
2023/11/04 08:39:00;;;;;;;2.78;1.00;;;11.00;99.90;;;;;;5036590;28;20033;-76
2023/11/04 08:41:26;;;;;;;2.53;0.88;;;10.90;99.90;;;;;;5036944;28;20072;-77
2023/11/04 08:43:51;;;;;;;3.00;1.02;;;10.90;99.90;;;;;;5036014;28;20375;-77
2023/11/04 08:46:18;;;;;;;2.58;1.15;;;11.00;99.90;;;;;;5035875;28;20080;-77
2023/11/04 08:48:45;;;;;;;2.17;0.85;;;11.00;99.90;;;;;;5035644;28;20057;-76
2023/11/04 08:51:10;;;;;;;2.38;1.30;;;11.40;99.90;;;;;;5036152;28;20021;-76
2023/11/04 08:53:36;;;;;;;3.28;1.20;;;11.40;99.90;;;;;;5035893;28;20080;-76
2023/11/04 08:56:03;;;;;;;2.92;1.02;;;11.30;99.90;;;;;;5036458;28;20120;-76
2023/11/04 08:58:29;;;;;;;2.88;1.02;;;11.60;99.90;;;;;;5036172;28;20044;-77
2023/11/04 09:00:55;;;;;;;2.67;1.25;;;12.10;99.90;;;;;;5035755;28;20022;-76
2023/11/04 09:03:23;;;;;;;2.25;0.90;;;12.60;1.00;;;;;;5036696;28;20029;-76
2023/11/04 09:05:49;;;;;;;1.15;1.00;;;13.10;1.00;;;;;;5036165;28;20037;-76
2023/11/04 09:08:15;;;;;;;2.58;1.10;;;13.20;99.90;;;;;;5035958;28;20459;-77
2023/11/04 09:10:41;;;;;;;1.55;1.00;;;12.80;99.90;;;;;;5036348;28;20029;-77
2023/11/04 09:13:06;;;;;;;3.03;1.13;;;12.70;99.90;;;;;;5036190;28;20026;-77
2023/11/04 09:15:34;;;;;;;2.75;1.33;;;12.70;96.70;;;;;;5036022;28;20387;-77
2023/11/04 09:17:59;;;;;;;5.25;1.30;;;13.00;1.00;;;;;;5035180;28;20056;-77
2023/11/04 09:20:25;;;;;;;3.30;1.05;;;13.00;1.00;;;;;;5035646;28;20116;-76
2023/11/04 09:22:50;;;;;;;1.50;1.13;;;12.50;99.90;;;;;;5035684;28;20080;-76
2023/11/04 09:25:16;;;;;;;4.10;1.00;;;12.40;1.00;;;;;;5035978;28;20026;-77
2023/11/04 09:27:42;;;;;;;3.38;1.02;;;12.10;1.00;;;;;;5035544;28;20104;-76
2023/11/04 09:30:08;;;;;;;1.40;1.00;;;11.90;99.90;;;;;;5035980;28;20525;-76
2023/11/04 09:32:34;;;;;;;2.67;0.93;;;11.80;99.90;;;;;;5035754;28;20029;-76
2023/11/04 09:35:00;;;;;;;2.95;1.15;;;11.90;99.90;;;;;;5035136;28;20079;-76
2023/11/04 09:37:25;;;;;;;1.98;1.08;;;11.50;1.00;;;;;;5035139;28;20112;-76
2023/11/04 09:39:51;;;;;;;1.40;0.98;;;11.80;19.00;;;;;;5035740;28;20041;-76
2023/11/04 09:42:20;;;;;;;1.52;1.33;;;12.00;99.90;;;;;;5035674;28;20029;-76
2023/11/04 09:44:45;;;;;;;2.90;1.10;;;12.00;99.90;;;;;;5035459;28;20356;-77
2023/11/04 09:47:11;;;;;;;1.90;1.00;;;12.10;99.90;;;;;;5034722;28;20116;-76
2023/11/04 09:49:37;;;;;;;2.03;1.02;;;12.00;22.10;;;;;;5034849;28;20071;-77
2023/11/04 09:52:08;;;;;;;1.48;1.05;;;11.80;1.00;;;;;;5035045;28;20021;-77
2023/11/04 09:54:36;;;;;;;1.90;1.15;;;11.90;37.00;;;;;;5035063;28;20117;-77
2023/11/04 09:57:02;;;;;;;3.28;1.05;;;11.90;46.70;;;;;;5033838;28;20026;-77
2023/11/04 09:59:28;;;;;;;3.83;1.38;;;12.00;99.90;;;;;;5035374;28;20048;-76
2023/11/04 10:01:54;;;;;;;1.38;0.95;;;12.10;1.00;;;;;;5034359;28;20033;-76
2023/11/04 10:04:19;;;;;;;5.45;1.30;;;12.20;1.00;;;;;;5035246;28;20029;-76
2023/11/04 10:06:45;;;;;;;1.25;1.15;;;12.10;1.00;;;;;;5035043;28;20029;-76
2023/11/04 10:09:11;;;;;;;3.53;1.52;;;12.10;1.00;;;;;;5035139;28;20036;-76
2023/11/04 10:11:37;;;;;;;1.65;1.20;;;12.10;1.00;;;;;;5034988;28;20022;-76
2023/11/04 10:14:02;;;;;;;1.20;1.10;;;12.30;24.70;;;;;;5034903;28;20025;-76
2023/11/04 10:16:29;;;;;;;1.23;1.00;;;12.50;1.00;;;;;;5034571;28;20094;-76
2023/11/04 10:18:56;;;;;;;1.42;1.10;;;12.30;1.00;;;;;;5033916;28;20056;-76
2023/11/04 10:21:21;;;;;;;3.15;1.00;;;12.30;99.90;;;;;;5034933;28;20037;-77
2023/11/04 10:23:47;;;;;;;2.25;1.38;;;12.20;1.00;;;;;;5035234;28;20434;-77
2023/11/04 10:26:15;;;;;;;4.20;1.25;;;12.10;1.00;;;;;;5034239;28;20026;-77
2023/11/04 10:28:41;;;;;;;1.58;0.95;;;12.20;99.90;;;;;;5034622;28;20140;-77
2023/11/04 10:31:07;;;;;;;1.70;0.80;;;12.20;99.90;;;;;;5035472;28;20026;-76
2023/11/04 10:33:35;;;;;;;2.65;0.90;;;12.40;99.90;;;;;;5035477;28;20025;-76
2023/11/04 10:36:04;;;;;;;2.10;1.00;;;12.30;58.40;;;;;;5035685;28;20036;-76
2023/11/04 10:38:32;;;;;;;2.00;0.93;;;12.40;1.00;;;;;;5034885;28;20040;-77
2023/11/04 10:40:59;;;;;;;2.25;1.10;;;12.60;99.90;;;;;;5035126;28;20062;-76
2023/11/04 10:43:27;;;;;;;2.55;0.98;;;12.40;1.00;;;;;;5035209;28;20026;-77
2023/11/04 10:45:58;;;;;;;2.53;0.90;;;12.50;99.90;;;;;;5036200;28;20108;-76
2023/11/04 10:48:39;;;;;;;2.42;0.95;;;12.70;29.40;;;;;;5038578;28;20033;-76
2023/11/04 10:51:16;;;;;;;1.42;0.90;;;13.50;99.90;;;;;;5037280;28;20037;-77
2023/11/04 10:56:33;;;;;;;1.92;1.02;;;14.30;1.00;;;;;;5094112;28;20377;-77
2023/11/04 10:59:26;;;;;;;2.00;1.05;;;14.30;1.00;;;;;;5093994;28;20036;-77
2023/11/04 11:01:54;;;;;;;3.53;0.93;;;14.20;99.90;;;;;;5092850;28;20056;-77
2023/11/04 11:04:21;;;;;;;1.50;0.80;;;13.80;23.80;;;;;;5093648;28;20547;-77
2023/11/04 11:06:47;;;;;;;3.67;1.10;;;13.50;99.90;;;;;;5093553;28;20470;-77
2023/11/04 11:09:14;;;;;;;2.08;0.93;;;13.40;93.60;;;;;;5092768;28;20482;-77
2023/11/04 11:12:04;;;;;;;3.95;0.98;;;13.10;99.90;;;;;;5093044;28;20043;-77
2023/11/04 11:14:30;;;;;;;1.73;1.00;;;12.90;99.90;;;;;;5091511;28;20056;-77
2023/11/04 11:17:01;;;;;;;3.00;0.98;;;12.70;1.00;;;;;;5091858;28;20440;-77
2023/11/04 11:19:26;;;;;;;3.28;1.00;;;12.60;99.90;;;;;;5092084;28;20459;-77
2023/11/04 11:21:52;;;;;;;4.80;1.48;;;12.60;1.00;;;;;;5092153;28;20035;-77
2023/11/04 11:24:21;;;;;;;2.22;1.00;;;12.70;8.60;;;;;;5091747;28;20031;-77
2023/11/04 11:26:49;;;;;;;2.33;0.98;;;12.60;14.90;;;;;;5090772;28;20028;-76
2023/11/04 11:29:23;;;;;;;2.47;1.00;;;12.50;99.90;;;;;;5091250;28;20028;-77
2023/11/04 11:31:51;;;;;;;1.95;1.08;;;12.30;31.90;;;;;;5090270;28;20027;-77
2023/11/04 11:34:20;;;;;;;3.72;1.30;;;12.20;40.00;;;;;;5091136;28;20033;-77
2023/11/04 11:36:47;;;;;;;2.60;1.45;;;12.30;36.00;;;;;;5090293;28;20028;-77
2023/11/04 11:39:13;;;;;;;3.10;1.30;;;12.50;99.90;;;;;;5090874;28;20571;-77
2023/11/04 11:41:39;;;;;;;3.20;1.20;;;12.50;99.90;;;;;;5090379;28;20028;-77
2023/11/04 11:44:06;;;;;;;3.85;1.00;;;12.60;99.90;;;;;;5089750;28;20091;-77
2023/11/04 11:46:32;;;;;;;3.65;1.60;;;12.70;99.90;;;;;;5090269;28;20115;-77
2023/11/04 11:48:58;;;;;;;2.40;1.20;;;12.50;99.90;;;;;;5090108;28;20111;-77
2023/11/04 11:51:24;;;;;;;2.95;0.90;;;12.40;99.90;;;;;;5090135;28;20025;-77
2023/11/04 11:53:50;;;;;;;2.03;0.95;;;12.30;99.90;;;;;;5089994;28;20120;-77
2023/11/04 11:56:16;;;;;;;3.53;1.00;;;12.20;1.00;;;;;;5089777;28;20131;-77
2023/11/04 11:58:42;;;;;;;2.60;1.10;;;12.20;31.10;;;;;;5089944;28;20442;-77
2023/11/04 12:01:10;;;;;;;3.13;1.02;;;12.10;99.90;;;;;;5090243;28;20059;-77
2023/11/04 12:03:36;;;;;;;3.00;1.38;;;12.10;99.90;;;;;;5090432;28;20032;-77
2023/11/04 12:06:02;;;;;;;5.25;1.42;;;12.10;1.00;;;;;;5085490;28;20073;-77
2023/11/04 12:08:28;;;;;;;4.03;1.30;;;12.10;1.00;;;;;;5076813;28;20059;-77
2023/11/04 12:10:54;;;;;;;5.22;1.17;;;12.00;27.00;;;;;;5076878;28;20064;-77
2023/11/04 12:13:21;;;;;;;4.43;1.20;;;12.00;1.00;;;;;;5076499;28;20074;-76
2023/11/04 12:15:47;;;;;;;3.03;1.10;;;11.90;1.00;;;;;;5076449;28;20404;-76
2023/11/04 12:18:13;;;;;;;5.38;1.30;;;12.00;34.70;;;;;;5076583;28;20024;-77
2023/11/04 12:20:41;;;;;;;4.72;1.40;;;12.00;1.00;;;;;;5076553;28;20027;-77
2023/11/04 12:23:10;;;;;;;3.67;1.63;;;11.90;99.90;;;;;;5076149;28;20025;-77
2023/11/04 12:25:37;;;;;;;3.38;1.33;;;11.90;99.90;;;;;;5076438;28;20118;-77
2023/11/04 12:28:04;;;;;;;5.07;1.15;;;11.90;99.90;;;;;;5075887;28;20024;-77
2023/11/04 12:30:30;;;;;;;3.58;1.23;;;12.00;99.90;;;;;;5075938;28;20036;-78
2023/11/04 12:32:58;;;;;;;4.18;1.27;;;12.00;1.00;;;;;;5076312;28;20037;-77
2023/11/04 12:35:24;;;;;;;2.92;1.10;;;12.00;1.00;;;;;;5076179;28;20126;-77
2023/11/04 12:37:52;;;;;;;3.60;1.00;;;12.00;99.90;;;;;;5076077;28;20039;-77
2023/11/04 12:40:18;;;;;;;3.40;1.27;;;11.90;13.70;;;;;;5077295;28;20029;-76
2023/11/04 12:42:45;;;;;;;2.70;1.42;;;11.90;1.00;;;;;;5075805;28;20466;-77
2023/11/04 12:45:12;;;;;;;4.25;1.10;;;12.00;40.30;;;;;;5076193;28;20455;-77
2023/11/04 12:47:38;;;;;;;4.03;1.42;;;11.90;1.00;;;;;;5076063;28;20036;-77
2023/11/04 12:50:06;;;;;;;2.20;0.95;;;11.80;93.30;;;;;;5075930;28;20478;-76
2023/11/04 12:52:32;;;;;;;2.95;1.45;;;11.90;99.90;;;;;;5076224;28;20458;-76
2023/11/04 12:54:58;;;;;;;2.67;1.15;;;11.80;99.90;;;;;;5075257;28;20437;-77
2023/11/04 12:57:24;;;;;;;3.13;1.23;;;11.80;99.90;;;;;;5076160;28;20143;-76
2023/11/04 12:59:50;;;;;;;5.13;1.15;;;11.80;99.90;;;;;;5075621;28;20025;-77